KASL/ASL METAR and TAF weather

Enter ICAO airport designator
Station Type Date Time Source
KASL METAR 2020/09/19 20:35 UTC NOAA

KASL 192035Z AUTO 06005G17KT 10SM CLR 26/12 A3008 RMK AO1 T02560124


Station Type Date Time Source
KASL Decoded METAR 2020/09/19 20:35 UTC NOAA

Station name not available
Sep 19, 2020 - 04:35 PM EDT / 2020.09.19 2035 UTC
Wind: from the ENE (060 degrees) at 6 MPH (5 KT) gusting to 20 MPH (17 KT):0
Visibility: 10 mile(s):0
Sky conditions: clear
Temperature: 78.1 F (25.6 C)
Dew Point: 54.3 F (12.4 C)
Relative Humidity: 43%
Pressure (altimeter): 30.08 in. Hg (1018 hPa)
ob: KASL 192035Z AUTO 06005G17KT 10SM CLR 26/12 A3008 RMK AO1 T02560124
cycle: 20

Station Type Date Time Source
KASL TAF UTC NOAA

Error!

Example: see airport list